sensor_id;sensor_type;location;lat;lon;timestamp;P1;durP1;ratioP1;P2;durP2;ratioP2
63005;SDS011;53704;52.532;6.426;2023-04-25T00:00:03;33.70;;;6.47;;
63005;SDS011;53704;52.532;6.426;2023-04-25T00:02:32;14.55;;;4.32;;
63005;SDS011;53704;52.532;6.426;2023-04-25T00:04:59;25.45;;;5.68;;
63005;SDS011;53704;52.532;6.426;2023-04-25T00:07:26;26.02;;;4.68;;
63005;SDS011;53704;52.532;6.426;2023-04-25T00:09:52;28.60;;;5.20;;
63005;SDS011;53704;52.532;6.426;2023-04-25T00:12:17;37.75;;;5.95;;
63005;SDS011;53704;52.532;6.426;2023-04-25T00:14:43;31.67;;;5.30;;
63005;SDS011;53704;52.532;6.426;2023-04-25T00:17:10;19.50;;;4.38;;
63005;SDS011;53704;52.532;6.426;2023-04-25T00:19:36;20.50;;;4.82;;
63005;SDS011;53704;52.532;6.426;2023-04-25T00:22:02;20.17;;;4.80;;
63005;SDS011;53704;52.532;6.426;2023-04-25T00:24:28;35.60;;;5.00;;
63005;SDS011;53704;52.532;6.426;2023-04-25T00:26:54;21.95;;;4.75;;
63005;SDS011;53704;52.532;6.426;2023-04-25T00:29:19;32.78;;;5.13;;
63005;SDS011;53704;52.532;6.426;2023-04-25T00:31:45;21.27;;;5.60;;
63005;SDS011;53704;52.532;6.426;2023-04-25T00:34:10;26.45;;;5.88;;
63005;SDS011;53704;52.532;6.426;2023-04-25T00:36:35;24.75;;;4.20;;
63005;SDS011;53704;52.532;6.426;2023-04-25T00:39:01;22.15;;;5.00;;
63005;SDS011;53704;52.532;6.426;2023-04-25T00:41:27;28.80;;;4.95;;
63005;SDS011;53704;52.532;6.426;2023-04-25T00:43:53;23.67;;;4.63;;
63005;SDS011;53704;52.532;6.426;2023-04-25T00:46:19;30.48;;;4.80;;
63005;SDS011;53704;52.532;6.426;2023-04-25T00:48:45;16.23;;;4.93;;
63005;SDS011;53704;52.532;6.426;2023-04-25T00:51:12;24.35;;;4.68;;
63005;SDS011;53704;52.532;6.426;2023-04-25T00:53:40;24.63;;;4.40;;
63005;SDS011;53704;52.532;6.426;2023-04-25T00:56:06;19.15;;;7.00;;
63005;SDS011;53704;52.532;6.426;2023-04-25T00:58:31;41.58;;;5.63;;
63005;SDS011;53704;52.532;6.426;2023-04-25T01:00:57;22.60;;;4.85;;
63005;SDS011;53704;52.532;6.426;2023-04-25T01:03:22;35.55;;;5.35;;
63005;SDS011;53704;52.532;6.426;2023-04-25T01:05:49;23.23;;;4.80;;
63005;SDS011;53704;52.532;6.426;2023-04-25T01:08:15;27.80;;;4.07;;
63005;SDS011;53704;52.532;6.426;2023-04-25T01:10:41;20.77;;;4.50;;
63005;SDS011;53704;52.532;6.426;2023-04-25T01:13:06;23.90;;;5.13;;
63005;SDS011;53704;52.532;6.426;2023-04-25T01:15:32;30.52;;;5.18;;
63005;SDS011;53704;52.532;6.426;2023-04-25T01:18:00;24.05;;;4.25;;
63005;SDS011;53704;52.532;6.426;2023-04-25T01:20:26;28.38;;;5.53;;
63005;SDS011;53704;52.532;6.426;2023-04-25T01:22:54;19.70;;;4.30;;
63005;SDS011;53704;52.532;6.426;2023-04-25T01:25:21;22.00;;;4.80;;
63005;SDS011;53704;52.532;6.426;2023-04-25T01:27:47;30.05;;;5.53;;
63005;SDS011;53704;52.532;6.426;2023-04-25T01:30:13;25.27;;;5.05;;
63005;SDS011;53704;52.532;6.426;2023-04-25T01:32:38;21.52;;;4.55;;
63005;SDS011;53704;52.532;6.426;2023-04-25T01:35:06;25.25;;;4.47;;
63005;SDS011;53704;52.532;6.426;2023-04-25T01:37:35;23.88;;;4.65;;
63005;SDS011;53704;52.532;6.426;2023-04-25T01:40:04;30.40;;;4.90;;
63005;SDS011;53704;52.532;6.426;2023-04-25T01:42:33;29.33;;;4.85;;
63005;SDS011;53704;52.532;6.426;2023-04-25T01:45:00;16.98;;;4.70;;
63005;SDS011;53704;52.532;6.426;2023-04-25T01:47:26;22.20;;;4.55;;
63005;SDS011;53704;52.532;6.426;2023-04-25T01:49:51;34.78;;;5.00;;
63005;SDS011;53704;52.532;6.426;2023-04-25T01:52:17;31.75;;;4.75;;
63005;SDS011;53704;52.532;6.426;2023-04-25T01:54:43;27.40;;;5.30;;
63005;SDS011;53704;52.532;6.426;2023-04-25T01:57:12;20.25;;;4.10;;
63005;SDS011;53704;52.532;6.426;2023-04-25T01:59:38;17.48;;;3.65;;
63005;SDS011;53704;52.532;6.426;2023-04-25T02:02:03;25.95;;;3.78;;
63005;SDS011;53704;52.532;6.426;2023-04-25T02:04:29;21.27;;;5.07;;
63005;SDS011;53704;52.532;6.426;2023-04-25T02:06:55;20.33;;;3.83;;
63005;SDS011;53704;52.532;6.426;2023-04-25T02:09:21;28.10;;;4.72;;
63005;SDS011;53704;52.532;6.426;2023-04-25T02:11:47;17.80;;;4.05;;
63005;SDS011;53704;52.532;6.426;2023-04-25T02:14:12;32.53;;;5.82;;
63005;SDS011;53704;52.532;6.426;2023-04-25T02:16:38;15.10;;;3.80;;
63005;SDS011;53704;52.532;6.426;2023-04-25T02:19:04;21.73;;;4.22;;
63005;SDS011;53704;52.532;6.426;2023-04-25T02:21:30;18.08;;;4.78;;
63005;SDS011;53704;52.532;6.426;2023-04-25T02:23:56;26.60;;;3.67;;
63005;SDS011;53704;52.532;6.426;2023-04-25T02:26:22;27.05;;;4.28;;
63005;SDS011;53704;52.532;6.426;2023-04-25T02:28:49;13.20;;;3.40;;
63005;SDS011;53704;52.532;6.426;2023-04-25T02:31:15;19.15;;;5.65;;
63005;SDS011;53704;52.532;6.426;2023-04-25T02:33:41;20.58;;;4.18;;
63005;SDS011;53704;52.532;6.426;2023-04-25T02:36:06;19.48;;;4.18;;
63005;SDS011;53704;52.532;6.426;2023-04-25T02:38:32;11.45;;;3.78;;
63005;SDS011;53704;52.532;6.426;2023-04-25T02:40:57;25.20;;;5.43;;
63005;SDS011;53704;52.532;6.426;2023-04-25T02:43:23;16.70;;;3.65;;
63005;SDS011;53704;52.532;6.426;2023-04-25T02:45:48;31.90;;;5.03;;
63005;SDS011;53704;52.532;6.426;2023-04-25T02:48:13;16.67;;;5.10;;
63005;SDS011;53704;52.532;6.426;2023-04-25T02:50:39;29.63;;;5.20;;
63005;SDS011;53704;52.532;6.426;2023-04-25T02:53:04;23.45;;;5.03;;
63005;SDS011;53704;52.532;6.426;2023-04-25T02:55:30;24.77;;;4.82;;
63005;SDS011;53704;52.532;6.426;2023-04-25T02:57:55;21.63;;;4.28;;
63005;SDS011;53704;52.532;6.426;2023-04-25T03:00:21;17.27;;;3.95;;
63005;SDS011;53704;52.532;6.426;2023-04-25T03:02:47;14.15;;;4.22;;
63005;SDS011;53704;52.532;6.426;2023-04-25T03:05:12;27.20;;;4.68;;
63005;SDS011;53704;52.532;6.426;2023-04-25T03:07:38;17.75;;;3.80;;
63005;SDS011;53704;52.532;6.426;2023-04-25T03:10:05;24.48;;;4.22;;
63005;SDS011;53704;52.532;6.426;2023-04-25T03:12:32;25.35;;;4.43;;
63005;SDS011;53704;52.532;6.426;2023-04-25T03:14:57;17.42;;;5.50;;
63005;SDS011;53704;52.532;6.426;2023-04-25T03:17:23;14.38;;;3.80;;
63005;SDS011;53704;52.532;6.426;2023-04-25T03:19:51;15.30;;;4.28;;
63005;SDS011;53704;52.532;6.426;2023-04-25T03:22:16;15.15;;;3.85;;
63005;SDS011;53704;52.532;6.426;2023-04-25T03:24:42;16.52;;;3.65;;
63005;SDS011;53704;52.532;6.426;2023-04-25T03:27:07;18.02;;;4.93;;
63005;SDS011;53704;52.532;6.426;2023-04-25T03:29:33;28.58;;;4.43;;
63005;SDS011;53704;52.532;6.426;2023-04-25T03:31:58;19.23;;;3.95;;
63005;SDS011;53704;52.532;6.426;2023-04-25T03:34:24;16.38;;;3.80;;
63005;SDS011;53704;52.532;6.426;2023-04-25T03:36:51;18.90;;;4.53;;
63005;SDS011;53704;52.532;6.426;2023-04-25T03:39:16;13.38;;;3.53;;
63005;SDS011;53704;52.532;6.426;2023-04-25T03:41:42;20.35;;;3.50;;
63005;SDS011;53704;52.532;6.426;2023-04-25T03:44:07;14.70;;;3.50;;
63005;SDS011;53704;52.532;6.426;2023-04-25T03:46:32;15.23;;;3.67;;
63005;SDS011;53704;52.532;6.426;2023-04-25T03:48:58;30.35;;;4.38;;
63005;SDS011;53704;52.532;6.426;2023-04-25T03:51:24;11.05;;;3.65;;
63005;SDS011;53704;52.532;6.426;2023-04-25T03:53:50;25.10;;;3.53;;
63005;SDS011;53704;52.532;6.426;2023-04-25T03:56:16;21.33;;;3.92;;
63005;SDS011;53704;52.532;6.426;2023-04-25T03:58:41;13.98;;;4.07;;
63005;SDS011;53704;52.532;6.426;2023-04-25T04:01:07;14.00;;;3.33;;
63005;SDS011;53704;52.532;6.426;2023-04-25T04:03:33;16.67;;;3.75;;
63005;SDS011;53704;52.532;6.426;2023-04-25T04:06:00;26.23;;;3.78;;
63005;SDS011;53704;52.532;6.426;2023-04-25T04:08:26;18.10;;;3.50;;
63005;SDS011;53704;52.532;6.426;2023-04-25T04:10:51;16.85;;;3.38;;
63005;SDS011;53704;52.532;6.426;2023-04-25T04:13:17;12.82;;;2.90;;
63005;SDS011;53704;52.532;6.426;2023-04-25T04:15:42;25.02;;;4.07;;
63005;SDS011;53704;52.532;6.426;2023-04-25T04:18:08;21.38;;;4.00;;
63005;SDS011;53704;52.532;6.426;2023-04-25T04:20:33;20.80;;;3.58;;
63005;SDS011;53704;52.532;6.426;2023-04-25T04:22:58;19.50;;;3.63;;
63005;SDS011;53704;52.532;6.426;2023-04-25T04:25:24;17.08;;;2.75;;
63005;SDS011;53704;52.532;6.426;2023-04-25T04:27:50;20.45;;;2.65;;
63005;SDS011;53704;52.532;6.426;2023-04-25T04:30:19;13.45;;;2.63;;
63005;SDS011;53704;52.532;6.426;2023-04-25T04:32:54;12.35;;;2.72;;
63005;SDS011;53704;52.532;6.426;2023-04-25T04:35:21;12.60;;;2.55;;
63005;SDS011;53704;52.532;6.426;2023-04-25T04:37:47;18.13;;;3.50;;
63005;SDS011;53704;52.532;6.426;2023-04-25T04:40:16;9.90;;;2.83;;
63005;SDS011;53704;52.532;6.426;2023-04-25T04:42:43;15.65;;;3.30;;
63005;SDS011;53704;52.532;6.426;2023-04-25T04:45:10;11.68;;;2.85;;
63005;SDS011;53704;52.532;6.426;2023-04-25T04:47:37;9.98;;;2.45;;
63005;SDS011;53704;52.532;6.426;2023-04-25T04:50:04;9.27;;;2.58;;
63005;SDS011;53704;52.532;6.426;2023-04-25T04:52:36;14.35;;;3.38;;
63005;SDS011;53704;52.532;6.426;2023-04-25T04:55:04;14.15;;;2.35;;
63005;SDS011;53704;52.532;6.426;2023-04-25T04:57:31;12.18;;;2.50;;
63005;SDS011;53704;52.532;6.426;2023-04-25T04:59:58;14.25;;;2.38;;
63005;SDS011;53704;52.532;6.426;2023-04-25T05:02:24;10.13;;;2.92;;
63005;SDS011;53704;52.532;6.426;2023-04-25T05:04:49;11.68;;;2.28;;
63005;SDS011;53704;52.532;6.426;2023-04-25T05:07:16;8.77;;;2.47;;
63005;SDS011;53704;52.532;6.426;2023-04-25T05:09:42;20.52;;;2.80;;
63005;SDS011;53704;52.532;6.426;2023-04-25T05:12:07;15.77;;;2.85;;
63005;SDS011;53704;52.532;6.426;2023-04-25T05:14:33;14.45;;;2.80;;
63005;SDS011;53704;52.532;6.426;2023-04-25T05:16:58;14.52;;;2.58;;
63005;SDS011;53704;52.532;6.426;2023-04-25T05:19:24;13.57;;;2.67;;
63005;SDS011;53704;52.532;6.426;2023-04-25T05:21:49;12.77;;;4.07;;
63005;SDS011;53704;52.532;6.426;2023-04-25T05:24:15;21.17;;;3.22;;
63005;SDS011;53704;52.532;6.426;2023-04-25T05:26:41;25.90;;;3.17;;
63005;SDS011;53704;52.532;6.426;2023-04-25T05:29:09;7.78;;;2.70;;
63005;SDS011;53704;52.532;6.426;2023-04-25T05:31:35;10.35;;;3.45;;
63005;SDS011;53704;52.532;6.426;2023-04-25T05:34:01;12.60;;;2.80;;
63005;SDS011;53704;52.532;6.426;2023-04-25T05:36:27;14.80;;;3.17;;
63005;SDS011;53704;52.532;6.426;2023-04-25T05:38:52;9.82;;;2.45;;
63005;SDS011;53704;52.532;6.426;2023-04-25T05:41:18;11.05;;;2.75;;
63005;SDS011;53704;52.532;6.426;2023-04-25T05:43:43;12.23;;;3.20;;
63005;SDS011;53704;52.532;6.426;2023-04-25T05:46:12;18.30;;;2.65;;
63005;SDS011;53704;52.532;6.426;2023-04-25T05:48:37;9.00;;;2.45;;
63005;SDS011;53704;52.532;6.426;2023-04-25T05:51:03;11.63;;;3.08;;
63005;SDS011;53704;52.532;6.426;2023-04-25T05:53:29;14.52;;;2.22;;
63005;SDS011;53704;52.532;6.426;2023-04-25T05:55:54;15.90;;;3.88;;
63005;SDS011;53704;52.532;6.426;2023-04-25T05:58:20;13.55;;;3.10;;
63005;SDS011;53704;52.532;6.426;2023-04-25T06:00:48;13.20;;;2.72;;
63005;SDS011;53704;52.532;6.426;2023-04-25T06:03:14;14.32;;;2.05;;
63005;SDS011;53704;52.532;6.426;2023-04-25T06:05:42;16.83;;;2.78;;
63005;SDS011;53704;52.532;6.426;2023-04-25T06:08:08;17.23;;;2.25;;
63005;SDS011;53704;52.532;6.426;2023-04-25T06:10:35;9.57;;;2.28;;
63005;SDS011;53704;52.532;6.426;2023-04-25T06:13:01;15.18;;;2.55;;
63005;SDS011;53704;52.532;6.426;2023-04-25T06:15:26;18.27;;;2.55;;
63005;SDS011;53704;52.532;6.426;2023-04-25T06:17:52;11.30;;;2.22;;
63005;SDS011;53704;52.532;6.426;2023-04-25T06:20:17;13.98;;;2.65;;
63005;SDS011;53704;52.532;6.426;2023-04-25T06:22:43;17.33;;;3.33;;
63005;SDS011;53704;52.532;6.426;2023-04-25T06:25:08;7.68;;;2.28;;
63005;SDS011;53704;52.532;6.426;2023-04-25T06:27:34;16.02;;;2.42;;
63005;SDS011;53704;52.532;6.426;2023-04-25T06:29:59;11.80;;;1.88;;
63005;SDS011;53704;52.532;6.426;2023-04-25T06:32:25;12.10;;;2.90;;
63005;SDS011;53704;52.532;6.426;2023-04-25T06:34:52;11.45;;;2.33;;
63005;SDS011;53704;52.532;6.426;2023-04-25T06:37:18;15.40;;;3.13;;
63005;SDS011;53704;52.532;6.426;2023-04-25T06:39:43;11.65;;;2.80;;
63005;SDS011;53704;52.532;6.426;2023-04-25T06:42:08;17.13;;;2.55;;
63005;SDS011;53704;52.532;6.426;2023-04-25T06:44:35;14.38;;;2.60;;
63005;SDS011;53704;52.532;6.426;2023-04-25T06:47:00;9.70;;;2.45;;
63005;SDS011;53704;52.532;6.426;2023-04-25T06:49:26;21.13;;;2.60;;
63005;SDS011;53704;52.532;6.426;2023-04-25T06:51:51;15.98;;;2.13;;
63005;SDS011;53704;52.532;6.426;2023-04-25T06:54:17;13.35;;;1.95;;
63005;SDS011;53704;52.532;6.426;2023-04-25T06:56:42;8.20;;;2.40;;
63005;SDS011;53704;52.532;6.426;2023-04-25T06:59:08;16.67;;;2.22;;
63005;SDS011;53704;52.532;6.426;2023-04-25T07:01:34;7.75;;;1.73;;
63005;SDS011;53704;52.532;6.426;2023-04-25T07:04:00;6.43;;;1.80;;
63005;SDS011;53704;52.532;6.426;2023-04-25T07:06:25;8.85;;;1.80;;
63005;SDS011;53704;52.532;6.426;2023-04-25T07:08:52;11.18;;;2.10;;
63005;SDS011;53704;52.532;6.426;2023-04-25T07:11:18;10.52;;;2.22;;
63005;SDS011;53704;52.532;6.426;2023-04-25T07:13:43;19.00;;;2.08;;
63005;SDS011;53704;52.532;6.426;2023-04-25T07:16:09;10.00;;;1.88;;
63005;SDS011;53704;52.532;6.426;2023-04-25T07:18:34;16.83;;;2.85;;
63005;SDS011;53704;52.532;6.426;2023-04-25T07:21:00;8.70;;;2.25;;
63005;SDS011;53704;52.532;6.426;2023-04-25T07:23:25;10.88;;;3.03;;
63005;SDS011;53704;52.532;6.426;2023-04-25T07:25:50;10.52;;;2.50;;
63005;SDS011;53704;52.532;6.426;2023-04-25T07:28:16;15.68;;;2.47;;
63005;SDS011;53704;52.532;6.426;2023-04-25T07:30:41;11.02;;;2.40;;
63005;SDS011;53704;52.532;6.426;2023-04-25T07:33:07;13.52;;;2.38;;
63005;SDS011;53704;52.532;6.426;2023-04-25T07:35:32;16.38;;;2.35;;
63005;SDS011;53704;52.532;6.426;2023-04-25T07:37:57;13.88;;;2.83;;
63005;SDS011;53704;52.532;6.426;2023-04-25T07:40:24;21.67;;;2.72;;
63005;SDS011;53704;52.532;6.426;2023-04-25T07:42:49;14.18;;;2.22;;
63005;SDS011;53704;52.532;6.426;2023-04-25T07:45:15;9.52;;;2.20;;
63005;SDS011;53704;52.532;6.426;2023-04-25T07:47:41;10.65;;;2.13;;
63005;SDS011;53704;52.532;6.426;2023-04-25T07:50:06;13.95;;;2.30;;
63005;SDS011;53704;52.532;6.426;2023-04-25T07:52:32;8.60;;;2.22;;
63005;SDS011;53704;52.532;6.426;2023-04-25T07:54:57;25.52;;;2.70;;
63005;SDS011;53704;52.532;6.426;2023-04-25T07:57:23;21.38;;;2.47;;
63005;SDS011;53704;52.532;6.426;2023-04-25T07:59:52;10.13;;;2.33;;
63005;SDS011;53704;52.532;6.426;2023-04-25T08:02:17;16.30;;;2.55;;
63005;SDS011;53704;52.532;6.426;2023-04-25T08:04:43;12.00;;;2.42;;
63005;SDS011;53704;52.532;6.426;2023-04-25T08:07:08;17.63;;;2.63;;
63005;SDS011;53704;52.532;6.426;2023-04-25T08:09:34;12.43;;;2.30;;
63005;SDS011;53704;52.532;6.426;2023-04-25T08:12:01;10.15;;;2.50;;
63005;SDS011;53704;52.532;6.426;2023-04-25T08:14:27;16.23;;;2.90;;
63005;SDS011;53704;52.532;6.426;2023-04-25T08:16:56;7.47;;;2.22;;
63005;SDS011;53704;52.532;6.426;2023-04-25T08:19:21;17.30;;;2.53;;
63005;SDS011;53704;52.532;6.426;2023-04-25T08:21:47;10.75;;;1.90;;
63005;SDS011;53704;52.532;6.426;2023-04-25T08:24:12;12.70;;;2.83;;
63005;SDS011;53704;52.532;6.426;2023-04-25T08:26:38;11.13;;;2.13;;
63005;SDS011;53704;52.532;6.426;2023-04-25T08:29:04;19.92;;;3.00;;
63005;SDS011;53704;52.532;6.426;2023-04-25T08:31:30;11.00;;;2.20;;
63005;SDS011;53704;52.532;6.426;2023-04-25T08:33:56;6.78;;;1.98;;
63005;SDS011;53704;52.532;6.426;2023-04-25T08:36:21;7.53;;;2.53;;
63005;SDS011;53704;52.532;6.426;2023-04-25T08:38:47;9.05;;;2.47;;
63005;SDS011;53704;52.532;6.426;2023-04-25T08:41:13;13.75;;;2.88;;
63005;SDS011;53704;52.532;6.426;2023-04-25T08:43:39;14.00;;;3.22;;
63005;SDS011;53704;52.532;6.426;2023-04-25T08:46:08;12.57;;;2.53;;
63005;SDS011;53704;52.532;6.426;2023-04-25T08:48:35;8.32;;;1.80;;
63005;SDS011;53704;52.532;6.426;2023-04-25T08:51:01;14.95;;;1.67;;
63005;SDS011;53704;52.532;6.426;2023-04-25T08:53:29;8.00;;;1.90;;
63005;SDS011;53704;52.532;6.426;2023-04-25T08:55:57;14.50;;;2.00;;
63005;SDS011;53704;52.532;6.426;2023-04-25T08:58:23;12.02;;;1.73;;
63005;SDS011;53704;52.532;6.426;2023-04-25T09:00:49;13.20;;;2.10;;
63005;SDS011;53704;52.532;6.426;2023-04-25T09:03:17;11.63;;;1.58;;
63005;SDS011;53704;52.532;6.426;2023-04-25T09:05:43;8.68;;;1.50;;
63005;SDS011;53704;52.532;6.426;2023-04-25T09:08:09;13.38;;;2.72;;
63005;SDS011;53704;52.532;6.426;2023-04-25T09:10:35;13.68;;;2.03;;
63005;SDS011;53704;52.532;6.426;2023-04-25T09:13:05;6.47;;;1.35;;
63005;SDS011;53704;52.532;6.426;2023-04-25T09:15:39;8.68;;;1.67;;
63005;SDS011;53704;52.532;6.426;2023-04-25T09:18:13;8.98;;;1.35;;
63005;SDS011;53704;52.532;6.426;2023-04-25T09:20:42;3.72;;;1.77;;
63005;SDS011;53704;52.532;6.426;2023-04-25T09:23:08;11.30;;;2.03;;
63005;SDS011;53704;52.532;6.426;2023-04-25T09:25:36;5.32;;;1.65;;
63005;SDS011;53704;52.532;6.426;2023-04-25T09:28:04;7.40;;;1.48;;
63005;SDS011;53704;52.532;6.426;2023-04-25T09:30:32;9.15;;;1.30;;
63005;SDS011;53704;52.532;6.426;2023-04-25T09:33:05;8.55;;;1.60;;
63005;SDS011;53704;52.532;6.426;2023-04-25T09:35:40;7.22;;;1.67;;
63005;SDS011;53704;52.532;6.426;2023-04-25T09:38:13;5.60;;;1.73;;
63005;SDS011;53704;52.532;6.426;2023-04-25T09:40:43;16.00;;;3.20;;
63005;SDS011;53704;52.532;6.426;2023-04-25T09:43:18;10.13;;;2.88;;
63005;SDS011;53704;52.532;6.426;2023-04-25T09:45:47;8.65;;;1.77;;
63005;SDS011;53704;52.532;6.426;2023-04-25T09:48:19;12.07;;;3.05;;
63005;SDS011;53704;52.532;6.426;2023-04-25T09:51:07;8.57;;;1.83;;
63005;SDS011;53704;52.532;6.426;2023-04-25T09:53:32;10.15;;;1.83;;
63005;SDS011;53704;52.532;6.426;2023-04-25T09:56:00;8.40;;;1.55;;
63005;SDS011;53704;52.532;6.426;2023-04-25T09:58:30;13.73;;;1.60;;
63005;SDS011;53704;52.532;6.426;2023-04-25T10:00:57;6.40;;;1.67;;
63005;SDS011;53704;52.532;6.426;2023-04-25T10:03:25;6.80;;;1.83;;
63005;SDS011;53704;52.532;6.426;2023-04-25T10:05:51;6.60;;;1.80;;
63005;SDS011;53704;52.532;6.426;2023-04-25T10:08:18;7.70;;;2.03;;
63005;SDS011;53704;52.532;6.426;2023-04-25T10:10:45;13.90;;;2.20;;
63005;SDS011;53704;52.532;6.426;2023-04-25T10:13:11;9.23;;;1.55;;
63005;SDS011;53704;52.532;6.426;2023-04-25T10:15:39;6.07;;;1.70;;
63005;SDS011;53704;52.532;6.426;2023-04-25T10:18:06;8.30;;;1.45;;
63005;SDS011;53704;52.532;6.426;2023-04-25T10:20:32;10.00;;;1.63;;
63005;SDS011;53704;52.532;6.426;2023-04-25T10:23:06;6.95;;;1.20;;
63005;SDS011;53704;52.532;6.426;2023-04-25T10:25:42;7.53;;;2.05;;
63005;SDS011;53704;52.532;6.426;2023-04-25T10:28:08;3.25;;;1.50;;
63005;SDS011;53704;52.532;6.426;2023-04-25T10:30:33;6.78;;;1.85;;
63005;SDS011;53704;52.532;6.426;2023-04-25T10:32:59;10.90;;;1.52;;
63005;SDS011;53704;52.532;6.426;2023-04-25T10:35:28;12.18;;;1.88;;
63005;SDS011;53704;52.532;6.426;2023-04-25T10:38:10;4.53;;;1.80;;
63005;SDS011;53704;52.532;6.426;2023-04-25T10:40:38;12.82;;;1.70;;
63005;SDS011;53704;52.532;6.426;2023-04-25T10:43:46;9.00;;;1.85;;
63005;SDS011;53704;52.532;6.426;2023-04-25T10:45:55;6.93;;;1.70;;
63005;SDS011;53704;52.532;6.426;2023-04-25T10:48:27;7.18;;;1.90;;
63005;SDS011;53704;52.532;6.426;2023-04-25T10:53:34;4.38;;;1.92;;
63005;SDS011;53704;52.532;6.426;2023-04-25T10:56:00;8.38;;;1.80;;
63005;SDS011;53704;52.532;6.426;2023-04-25T10:58:25;6.75;;;2.10;;
63005;SDS011;53704;52.532;6.426;2023-04-25T11:00:51;9.00;;;2.05;;
63005;SDS011;53704;52.532;6.426;2023-04-25T11:03:17;8.52;;;2.25;;
63005;SDS011;53704;52.532;6.426;2023-04-25T11:05:42;15.73;;;2.28;;
63005;SDS011;53704;52.532;6.426;2023-04-25T11:08:13;9.05;;;1.90;;
63005;SDS011;53704;52.532;6.426;2023-04-25T11:10:42;8.35;;;1.92;;
63005;SDS011;53704;52.532;6.426;2023-04-25T11:13:07;6.13;;;1.50;;
63005;SDS011;53704;52.532;6.426;2023-04-25T11:15:33;6.10;;;2.15;;
63005;SDS011;53704;52.532;6.426;2023-04-25T11:17:58;8.88;;;1.40;;
63005;SDS011;53704;52.532;6.426;2023-04-25T11:20:25;10.13;;;1.85;;
63005;SDS011;53704;52.532;6.426;2023-04-25T11:22:53;8.88;;;1.38;;
63005;SDS011;53704;52.532;6.426;2023-04-25T11:25:19;7.53;;;1.45;;
63005;SDS011;53704;52.532;6.426;2023-04-25T11:27:51;8.43;;;2.05;;
63005;SDS011;53704;52.532;6.426;2023-04-25T11:30:18;3.20;;;1.45;;
63005;SDS011;53704;52.532;6.426;2023-04-25T11:32:44;7.47;;;2.88;;
63005;SDS011;53704;52.532;6.426;2023-04-25T11:35:10;8.20;;;1.50;;
63005;SDS011;53704;52.532;6.426;2023-04-25T11:37:38;11.98;;;2.25;;
63005;SDS011;53704;52.532;6.426;2023-04-25T11:40:04;7.15;;;2.10;;
63005;SDS011;53704;52.532;6.426;2023-04-25T11:42:31;17.92;;;3.10;;
63005;SDS011;53704;52.532;6.426;2023-04-25T11:44:58;6.30;;;1.77;;
63005;SDS011;53704;52.532;6.426;2023-04-25T11:47:28;6.57;;;1.73;;
63005;SDS011;53704;52.532;6.426;2023-04-25T11:49:54;10.95;;;1.65;;
63005;SDS011;53704;52.532;6.426;2023-04-25T11:52:20;8.85;;;2.05;;
63005;SDS011;53704;52.532;6.426;2023-04-25T11:54:48;8.13;;;1.45;;
63005;SDS011;53704;52.532;6.426;2023-04-25T11:57:14;5.72;;;2.13;;
63005;SDS011;53704;52.532;6.426;2023-04-25T11:59:39;8.52;;;2.42;;
63005;SDS011;53704;52.532;6.426;2023-04-25T12:02:05;6.57;;;3.78;;
63005;SDS011;53704;52.532;6.426;2023-04-25T12:04:32;7.10;;;1.60;;
63005;SDS011;53704;52.532;6.426;2023-04-25T12:06:58;2.85;;;1.30;;
63005;SDS011;53704;52.532;6.426;2023-04-25T12:09:29;7.75;;;2.00;;
63005;SDS011;53704;52.532;6.426;2023-04-25T12:11:57;4.35;;;1.50;;
63005;SDS011;53704;52.532;6.426;2023-04-25T12:14:27;5.97;;;2.13;;
63005;SDS011;53704;52.532;6.426;2023-04-25T12:16:56;4.82;;;2.72;;
63005;SDS011;53704;52.532;6.426;2023-04-25T12:19:26;5.43;;;1.50;;
63005;SDS011;53704;52.532;6.426;2023-04-25T12:22:01;9.95;;;2.08;;
63005;SDS011;53704;52.532;6.426;2023-04-25T12:24:32;6.32;;;1.73;;
63005;SDS011;53704;52.532;6.426;2023-04-25T12:27:00;7.50;;;1.60;;
63005;SDS011;53704;52.532;6.426;2023-04-25T12:29:28;10.45;;;1.85;;
63005;SDS011;53704;52.532;6.426;2023-04-25T12:31:55;5.15;;;2.15;;
63005;SDS011;53704;52.532;6.426;2023-04-25T12:34:21;3.30;;;1.75;;
63005;SDS011;53704;52.532;6.426;2023-04-25T12:36:47;9.20;;;2.00;;
63005;SDS011;53704;52.532;6.426;2023-04-25T12:39:16;4.05;;;1.50;;
63005;SDS011;53704;52.532;6.426;2023-04-25T12:41:48;8.98;;;1.30;;
63005;SDS011;53704;52.532;6.426;2023-04-25T12:44:15;4.13;;;1.00;;
63005;SDS011;53704;52.532;6.426;2023-04-25T12:46:42;2.53;;;1.40;;
63005;SDS011;53704;52.532;6.426;2023-04-25T12:49:07;2.08;;;0.90;;
63005;SDS011;53704;52.532;6.426;2023-04-25T12:51:39;3.08;;;1.10;;
63005;SDS011;53704;52.532;6.426;2023-04-25T12:54:05;5.57;;;1.48;;
63005;SDS011;53704;52.532;6.426;2023-04-25T12:56:34;2.42;;;1.15;;
63005;SDS011;53704;52.532;6.426;2023-04-25T12:59:00;4.55;;;1.55;;
63005;SDS011;53704;52.532;6.426;2023-04-25T13:01:26;5.65;;;1.48;;
63005;SDS011;53704;52.532;6.426;2023-04-25T13:03:51;4.18;;;1.33;;
63005;SDS011;53704;52.532;6.426;2023-04-25T13:06:18;9.85;;;1.75;;
63005;SDS011;53704;52.532;6.426;2023-04-25T13:08:44;7.03;;;2.42;;
63005;SDS011;53704;52.532;6.426;2023-04-25T13:11:10;13.73;;;2.25;;
63005;SDS011;53704;52.532;6.426;2023-04-25T13:13:36;5.75;;;2.10;;
63005;SDS011;53704;52.532;6.426;2023-04-25T13:16:02;11.32;;;2.45;;
63005;SDS011;53704;52.532;6.426;2023-04-25T13:18:29;11.90;;;2.65;;
63005;SDS011;53704;52.532;6.426;2023-04-25T13:20:55;4.95;;;1.73;;
63005;SDS011;53704;52.532;6.426;2023-04-25T13:23:21;5.78;;;1.77;;
63005;SDS011;53704;52.532;6.426;2023-04-25T13:25:47;5.35;;;2.08;;
63005;SDS011;53704;52.532;6.426;2023-04-25T13:28:13;14.00;;;2.15;;
63005;SDS011;53704;52.532;6.426;2023-04-25T13:30:39;6.50;;;1.70;;
63005;SDS011;53704;52.532;6.426;2023-04-25T13:33:05;5.30;;;1.48;;
63005;SDS011;53704;52.532;6.426;2023-04-25T13:35:31;3.90;;;1.70;;
63005;SDS011;53704;52.532;6.426;2023-04-25T13:37:59;8.38;;;1.95;;
63005;SDS011;53704;52.532;6.426;2023-04-25T13:40:25;11.80;;;2.33;;
63005;SDS011;53704;52.532;6.426;2023-04-25T13:42:51;6.13;;;1.90;;
63005;SDS011;53704;52.532;6.426;2023-04-25T13:45:17;10.25;;;1.98;;
63005;SDS011;53704;52.532;6.426;2023-04-25T13:47:42;6.50;;;1.60;;
63005;SDS011;53704;52.532;6.426;2023-04-25T13:50:09;6.57;;;1.63;;
63005;SDS011;53704;52.532;6.426;2023-04-25T13:52:35;11.73;;;1.38;;
63005;SDS011;53704;52.532;6.426;2023-04-25T13:55:00;12.68;;;2.35;;
63005;SDS011;53704;52.532;6.426;2023-04-25T13:57:28;8.40;;;2.13;;
63005;SDS011;53704;52.532;6.426;2023-04-25T13:59:58;11.38;;;2.55;;
63005;SDS011;53704;52.532;6.426;2023-04-25T14:02:24;10.63;;;1.95;;
63005;SDS011;53704;52.532;6.426;2023-04-25T14:04:51;8.00;;;1.88;;
63005;SDS011;53704;52.532;6.426;2023-04-25T14:07:17;10.00;;;2.22;;
63005;SDS011;53704;52.532;6.426;2023-04-25T14:09:44;13.02;;;2.58;;
63005;SDS011;53704;52.532;6.426;2023-04-25T14:12:09;10.43;;;2.67;;
63005;SDS011;53704;52.532;6.426;2023-04-25T14:14:36;6.05;;;2.13;;
63005;SDS011;53704;52.532;6.426;2023-04-25T14:17:01;7.85;;;1.63;;
63005;SDS011;53704;52.532;6.426;2023-04-25T14:19:27;4.20;;;1.60;;
63005;SDS011;53704;52.532;6.426;2023-04-25T14:21:53;10.52;;;2.20;;
63005;SDS011;53704;52.532;6.426;2023-04-25T14:24:19;12.57;;;2.45;;
63005;SDS011;53704;52.532;6.426;2023-04-25T14:26:44;4.95;;;1.13;;
63005;SDS011;53704;52.532;6.426;2023-04-25T14:29:10;6.88;;;1.88;;
63005;SDS011;53704;52.532;6.426;2023-04-25T14:31:37;4.53;;;1.20;;
63005;SDS011;53704;52.532;6.426;2023-04-25T14:34:06;4.85;;;2.05;;
63005;SDS011;53704;52.532;6.426;2023-04-25T14:36:32;6.05;;;1.50;;